Flight Track Log - Related Links

Times and Time Zones

All times are in EDT time to prevent confusion due to time zone crossing. See the EGF3653 flight status page for this flight to view local times or setup timezone preferences in your user account.

Time Position Orientation Groundspeed Altitude Reporting Facility
EDT Latitude Longitude Course Direction KTS MPH feet Rate Location/Type
Wed 03:27:03 PM 29.9817 -95.3556 277° West 153 176 600  Level Houston Center
Wed 03:27:45 PM 29.9894 -95.3956 283° West 202 232 2,000 1,788 Climbing Houston Center
Wed 03:28:47 PM 29.9775 -95.4719 260° West 268 308 3,700 2,368 Climbing Houston Center
Wed 03:29:39 PM 29.9869 -95.5450 279° West 259 298 6,500 2,817 Climbing Houston Center
Wed 03:30:42 PM 30.0011 -95.6272 281° West 261 300 9,100 2,160 Climbing Houston Center
Wed 03:31:00 PM 30.0446 -95.9350 276° West  Level FlightAware Approximate
Wed 03:31:44 PM 30.0161 -95.7169 281° West 276 318 11,000  Level Houston Center
Wed 03:32:00 PM 30.0669 -96.0527 277° West  Level FlightAware Approximate
Wed 03:32:46 PM 30.0317 -95.8186 280° West 319 367 12,300  Level Houston Center
Wed 03:33:48 PM 30.0494 -95.9328 280° West 359 413 13,700 1,500 Climbing Houston Center
Wed 03:34:50 PM 30.0694 -96.0597 280° West 377 434 15,400 1,597 Climbing Houston Center
Wed 03:35:52 PM 30.0889 -96.1803 281° West 383 441 17,000 1,632 Climbing Houston Center
Wed 03:36:55 PM 30.1106 -96.3272 280° West 388 447 18,800 1,584 Climbing Houston Center
Wed 03:37:57 PM 30.1286 -96.4397 281° West 388 447 20,300 1,500 Climbing Houston Center
Wed 03:38:59 PM 30.1472 -96.5678 280° West 396 456 21,900 1,452 Climbing Houston Center
Wed 03:40:01 PM 30.1706 -96.7142 280° West 393 452 23,300 1,161 Climbing Houston Center
Wed 03:41:03 PM 30.1894 -96.8464 279° West 407 468 24,300 968 Climbing Houston Center
Wed 03:42:05 PM 30.2097 -96.9789 280° West 414 476 25,300 968 Climbing Houston Center
Wed 03:43:07 PM 30.2292 -97.1150 279° West 422 486 26,300 960 Climbing Houston Center
Wed 03:44:10 PM 30.2489 -97.2489 280° West 418 481 27,300 1,008 Climbing Houston Center
Wed 03:45:12 PM 30.2689 -97.3833 280° West 418 481 28,400 1,113 Climbing Houston Center
Wed 03:46:14 PM 30.2878 -97.5144 280° West 411 473 29,600 968 Climbing Houston Center
Wed 03:47:16 PM 30.3061 -97.6447 279° West 407 468 30,400 774 Climbing Houston Center
Wed 03:48:18 PM 30.3281 -97.7986 279° West 409 471 31,200 774 Climbing Houston Center
Wed 03:49:20 PM 30.3458 -97.9289 279° West 406 467 32,000 677 Climbing Houston Center
Wed 03:50:22 PM 30.3653 -98.0617 280° West 412 474 32,600 629 Climbing Houston Center
Wed 03:51:24 PM 30.3842 -98.1944 279° West 413 475 33,300 624 Climbing Houston Center
Wed 03:52:27 PM 30.4017 -98.3269 279° West 413 475 33,900 576 Climbing Houston Center
Wed 03:53:29 PM 30.4208 -98.4597 280° West 414 476 34,500 581 Climbing Houston Center
Wed 03:54:31 PM 30.4375 -98.5911 278° West 408 470 35,100 581 Climbing Houston Center
Wed 03:55:33 PM 30.4556 -98.7208 279° West 406 467 35,700 435 Climbing Houston Center
Wed 03:56:35 PM 30.4769 -98.8728 279° West 408 470 36,000 145 Climbing Houston Center
Wed 03:57:37 PM 30.4939 -99.0042 279° West 411 473 36,000  Level Houston Center
Wed 03:58:39 PM 30.5117 -99.1375 279° West 414 476 36,000  Level Houston Center
Wed 03:59:42 PM 30.5308 -99.2775 279° West 409 471 36,000  Level Houston Center
Wed 04:00:44 PM 30.5469 -99.4056 278° West 405 466 36,000  Level Houston Center
Wed 04:01:46 PM 30.5639 -99.5342 279° West 404 465 36,000  Level Houston Center
Wed 04:02:48 PM 30.5794 -99.6636 278° West 405 466 36,000  Level Houston Center
Wed 04:03:50 PM 30.5967 -99.7917 279° West 405 466 36,000  Level Houston Center
Wed 04:04:52 PM 30.6150 -99.9464 278° West 405 466 36,000  Level Houston Center
Wed 04:06:00 PM 30.6319 -100.0873 278° West  Level FlightAware Approximate
Wed 04:06:57 PM 30.6458 -100.2011 278° West 397 457 36,000  Level Houston Center
Wed 04:07:59 PM 30.6614 -100.3306 278° West 407 468 36,000  Level Houston Center
Wed 04:09:01 PM 30.6778 -100.4589 278° West 411 473 36,000  Level Houston Center
Wed 04:10:03 PM 30.6944 -100.6133 277° West 406 467 36,000  Level Houston Center
Wed 04:11:05 PM 30.7097 -100.7433 278° West 401 461 36,000  Level Houston Center
Wed 04:12:07 PM 30.7261 -100.8728 278° West 408 470 36,000  Level Houston Center
Wed 04:13:09 PM 30.7386 -101.0050 276° West 412 474 36,000  Level Houston Center
Wed 04:14:12 PM 30.7550 -101.1339 278° West 411 473 36,000  Level Houston Center
Wed 04:15:14 PM 30.7747 -101.2861 279° West 403 464 36,000  Level Houston Center
Wed 04:16:16 PM 30.7875 -101.4172 277° West 408 470 36,000  Level Houston Center
Wed 04:17:18 PM 30.8006 -101.5494 277° West 411 473 36,000  Level Houston Center
Wed 04:18:32 PM 30.8197 -101.7111 278° West 408 470 36,000  Level Albuquerque Center
Wed 04:19:34 PM 30.8342 -101.8431 277° West 409 471 36,000  Level Albuquerque Center
Wed 04:20:36 PM 30.8475 -101.9742 277° West 409 471 36,000  Level Albuquerque Center
Wed 04:21:38 PM 30.8614 -102.1058 277° West 408 470 36,000  Level Albuquerque Center
Wed 04:22:40 PM 30.8756 -102.2367 277° West 407 468 36,000  Level Albuquerque Center
Wed 04:23:42 PM 30.8922 -102.3961 277° West 409 471 36,000  Level Albuquerque Center
Wed 04:24:44 PM 30.9050 -102.5281 276° West 409 471 36,000  Level Albuquerque Center
Wed 04:25:46 PM 30.9189 -102.6592 277° West 407 468 36,000  Level Albuquerque Center
Wed 04:26:48 PM 30.9325 -102.7914 277° West 408 470 36,000  Level Albuquerque Center
Wed 04:27:50 PM 30.9464 -102.9225 277° West 409 471 36,000  Level Albuquerque Center
Wed 04:28:52 PM 30.9714 -103.0508 283° West 407 468 36,000  Level Albuquerque Center
Wed 04:29:54 PM 31.0075 -103.1794 288° West 414 476 36,000  Level Albuquerque Center
Wed 04:30:57 PM 31.0503 -103.3325 288° West 415 478 36,000  Level Albuquerque Center
Wed 04:31:58 PM 31.0839 -103.4583 287° West 411 473 36,000  Level Albuquerque Center
Wed 04:33:00 PM 31.1186 -103.5867 288° West 413 475 36,000  Level Albuquerque Center
Wed 04:34:02 PM 31.1531 -103.7147 287° West 413 475 36,000  Level Albuquerque Center
Wed 04:35:04 PM 31.1864 -103.8378 288° West 414 476 36,000  Level Albuquerque Center
Wed 04:36:06 PM 31.2214 -103.9647 288° West 413 475 36,000  Level Albuquerque Center
Wed 04:37:08 PM 31.2622 -104.1189 287° West 416 479 36,000  Level Albuquerque Center
Wed 04:38:10 PM 31.2956 -104.2458 287° West 414 476 36,000  Level Albuquerque Center
Wed 04:39:12 PM 31.3297 -104.3739 287° West 414 476 36,000  Level Albuquerque Center
Wed 04:40:14 PM 31.3628 -104.5014 287° West 414 476 36,000  Level Albuquerque Center
Wed 04:41:16 PM 31.3975 -104.6278 288° West 413 475 36,000  Level Albuquerque Center
Wed 04:42:18 PM 31.4364 -104.7808 287° West 412 474 36,000  Level Albuquerque Center
Wed 04:43:20 PM 31.4694 -104.9081 287° West 413 475 36,000  Level Albuquerque Center
Wed 04:44:22 PM 31.5031 -105.0350 287° West 412 474 36,000  Level Albuquerque Center
Wed 04:45:24 PM 31.5353 -105.1619 287° West 411 473 36,000  Level Albuquerque Center
Wed 04:46:27 PM 31.5678 -105.2892 287° West 411 473 36,000  Level Albuquerque Center
Wed 04:47:29 PM 31.6069 -105.4444 287° West 415 478 36,000  Level Albuquerque Center
Wed 04:48:31 PM 31.6383 -105.5714 286° West 409 471 36,000  Level Albuquerque Center
Wed 04:49:33 PM 31.6717 -105.6992 287° West 411 473 36,000  Level Albuquerque Center
Wed 04:50:35 PM 31.7028 -105.8269 286° West 409 471 36,000  Level Albuquerque Center
Wed 04:51:37 PM 31.7350 -105.9556 286° West 410 472 36,000  Level Albuquerque Center
Wed 04:52:39 PM 31.7736 -106.1094 286° West 411 473 36,000  Level Albuquerque Center
Wed 04:53:41 PM 31.8069 -106.2369 287° West 409 471 36,000  Level Albuquerque Center
Wed 04:54:43 PM 31.8236 -106.3681 279° West 409 471 36,000  Level Albuquerque Center
Wed 04:55:45 PM 31.8342 -106.5000 275° West 407 468 36,000  Level Albuquerque Center
Wed 04:56:47 PM 31.8425 -106.6308 274° West 405 466 36,000  Level Albuquerque Center
Wed 04:57:49 PM 31.8528 -106.7633 275° West 406 467 36,000  Level Albuquerque Center
Wed 04:58:51 PM 31.8647 -106.9197 275° West 400 460 36,000  Level Albuquerque Center
Wed 04:59:53 PM 31.8744 -107.0522 275° West 404 465 36,000  Level Albuquerque Center
Wed 05:00:55 PM 31.9056 -107.1819 286° West 414 476 36,000  Level Albuquerque Center
Wed 05:01:57 PM 31.9444 -107.3103 290° West 414 476 36,000  Level Albuquerque Center
Wed 05:02:59 PM 31.9825 -107.4389 289° West 414 476 36,000  Level Albuquerque Center
Wed 05:04:01 PM 32.0194 -107.5678 289° West 415 478 36,000  Level Albuquerque Center
Wed 05:05:03 PM 32.0578 -107.6956 290° West 413 475 36,000  Level Albuquerque Center
Wed 05:06:05 PM 32.1042 -107.8500 290° West 414 476 36,000  Level Albuquerque Center
Wed 05:07:07 PM 32.1408 -107.9769 289° West 411 473 36,000  Level Albuquerque Center
Wed 05:08:09 PM 32.1783 -108.1050 289° West 411 473 36,000  Level Albuquerque Center
Wed 05:09:11 PM 32.2161 -108.2325 289° West 411 473 36,000  Level Albuquerque Center
Wed 05:10:13 PM 32.2519 -108.3603 288° West 410 472 36,000  Level Albuquerque Center
Wed 05:11:15 PM 32.2917 -108.4947 289° West 413 475 36,000  Level Albuquerque Center
Wed 05:12:17 PM 32.3286 -108.6214 289° West 411 473 36,000  Level Albuquerque Center
Wed 05:13:20 PM 32.3642 -108.7500 288° West 412 474 36,000  Level Albuquerque Center
Wed 05:14:22 PM 32.4086 -108.9036 289° West 413 475 36,000  Level Albuquerque Center
Wed 05:15:24 PM 32.4453 -109.0333 289° West 415 478 36,000  Level Albuquerque Center
Wed 05:16:26 PM 32.4822 -109.1622 289° West 414 476 36,000  Level Albuquerque Center
Wed 05:17:28 PM 32.5192 -109.2922 289° West 415 478 36,000  Level Albuquerque Center
Wed 05:18:30 PM 32.5553 -109.4217 288° West 415 478 36,000  Level Albuquerque Center
Wed 05:19:32 PM 32.5978 -109.5778 288° West 416 479 36,000 48 Level Albuquerque Center
Wed 05:20:34 PM 32.6344 -109.7075 289° West 417 480 36,100  Climbing Albuquerque Center
Wed 05:21:36 PM 32.6722 -109.8406 289° West 425 489 36,000 -48 Descending Albuquerque Center
Wed 05:22:38 PM 32.7061 -109.9683 288° West 414 476 36,000  Level Albuquerque Center
Wed 05:23:40 PM 32.7450 -110.0997 289° West 419 482 36,000  Level Albuquerque Center
Wed 05:24:42 PM 32.7800 -110.2306 288° West 419 482 36,000  Level Albuquerque Center
Wed 05:25:44 PM 32.8219 -110.3850 288° West 413 475 36,000  Level Albuquerque Center
Wed 05:26:46 PM 32.8567 -110.5150 288° West 415 478 36,000  Level Albuquerque Center
Wed 05:28:50 PM 32.9294 -110.7833 288° West 417 480 36,000  Level Albuquerque Center
Wed 05:29:52 PM 32.9672 -110.9128 289° West 416 479 36,000  Level Albuquerque Center
Wed 05:30:54 PM 33.0100 -111.0383 292° West 410 472 36,000  Level Albuquerque Center
Wed 05:31:56 PM 33.0511 -111.1678 291° West 415 478 36,000  Level Albuquerque Center
Wed 05:32:58 PM 33.1003 -111.3239 291° West 420 483 36,000  Level Albuquerque Center
Wed 05:34:00 PM 33.1408 -111.4539 290° West 418 481 36,000  Level Albuquerque Center
Wed 05:35:02 PM 33.1814 -111.5847 290° West 420 483 36,000  Level Albuquerque Center
Wed 05:36:04 PM 33.2236 -111.7183 291° West 426 490 36,000 -48 Level Albuquerque Center
Wed 05:37:06 PM 33.2642 -111.8506 290° West 425 489 35,900  Descending Albuquerque Center
Wed 05:38:07 PM 33.3047 -111.9817 290° West 421 484 36,000 49 Climbing Albuquerque Center
Wed 05:39:09 PM 33.3453 -112.1136 290° West 421 484 36,000  Level Albuquerque Center
Wed 05:40:11 PM 33.3856 -112.2469 290° West 423 487 36,000  Level Albuquerque Center
Wed 05:41:13 PM 33.4353 -112.4078 290° West 427 491 36,000  Level Albuquerque Center
Wed 05:42:15 PM 33.4761 -112.5442 290° West 433 498 36,000  Level Albuquerque Center
Wed 05:43:17 PM 33.5200 -112.6875 290° West 430 495 36,000  Level Albuquerque Center
Wed 05:44:19 PM 33.5614 -112.8236 290° West 434 499 36,000  Level Albuquerque Center
Wed 05:45:21 PM 33.6017 -112.9611 289° West 438 504 36,000  Level Albuquerque Center
Wed 05:46:23 PM 33.6428 -113.0989 290° West 439 505 36,000  Level Albuquerque Center
Wed 05:47:25 PM 33.6906 -113.2581 290° West 440 506 36,000  Level Albuquerque Center
Wed 05:48:27 PM 33.7317 -113.3969 290° West 441 507 36,000  Level Albuquerque Center
Wed 05:49:29 PM 33.7728 -113.5378 289° West 444 511 36,000  Level Albuquerque Center
Wed 05:50:32 PM 33.8144 -113.6786 290° West 447 514 36,000  Level Albuquerque Center
Wed 05:51:34 PM 33.8550 -113.8206 289° West 449 517 36,000  Level Albuquerque Center
Wed 05:52:36 PM 33.8931 -113.9644 288° West 450 518 36,000  Level Albuquerque Center
Wed 05:53:38 PM 33.9128 -114.1411 278° West 447 514 36,000  Level Albuquerque Center
Wed 05:54:40 PM 33.9314 -114.2931 278° West 447 514 36,000  Level Albuquerque Center
Wed 05:55:42 PM 33.9508 -114.4406 279° West 448 516 36,000  Level Albuquerque Center
Wed 05:56:04 PM 33.9575 -114.4831 281° West 449 517 36,000  Level Los Angeles Center
Wed 05:57:06 PM 33.9761 -114.6314 279° West 449 517 36,000  Level Los Angeles Center
Wed 05:58:08 PM 33.9989 -114.8081 279° West 448 516 36,000  Level Los Angeles Center
Wed 05:59:10 PM 34.0169 -114.9572 278° West 449 517 36,000  Level Los Angeles Center
Wed 06:00:12 PM 34.0344 -115.1069 278° West 452 520 36,000  Level Los Angeles Center
Wed 06:01:14 PM 34.0536 -115.2569 279° West 455 524 36,000  Level Los Angeles Center
Wed 06:02:16 PM 34.0700 -115.4089 277° West 459 528 36,000 -864 Level Los Angeles Center
Wed 06:03:19 PM 34.0925 -115.5947 278° West 468 539 34,200 -1,680 Descending Los Angeles Center
Wed 06:04:21 PM 34.1089 -115.7519 277° West 473 544 32,500 -1,645 Descending Los Angeles Center
Wed 06:05:23 PM 34.0936 -115.9019 263° West 454 522 30,800 -1,645 Descending Los Angeles Center
Wed 06:06:25 PM 34.0722 -116.0483 260° West 449 517 29,100 -1,645 Descending Los Angeles Center
Wed 06:07:27 PM 34.0489 -116.1933 259° West 443 510 27,400 -1,790 Descending Los Angeles Center
Wed 06:08:29 PM 34.0236 -116.3653 260° West 438 504 25,400 -1,645 Descending Los Angeles Center
Wed 06:09:31 PM 34.0039 -116.5047 260° West 428 493 24,000 -677 Descending Los Angeles Center
Wed 06:10:33 PM 33.9931 -116.6439 265° West 421 484 24,000 -926 Level Los Angeles Center
Wed 06:11:47 PM 33.9817 -116.7853 264° West 425 489 21,900 -2,190 Descending Los Angeles Center
Wed 06:12:50 PM 33.9669 -116.9567 264° West 431 496 19,000 -2,867 Descending Los Angeles Center
Wed 06:13:17 PM 33.9667 -117.0333 270° West 409 471 17,600 -1,379 Descending Southern California TRACON
Wed 06:14:17 PM 33.9500 -117.1667 261° West 359 413 17,000 -300 Descending Southern California TRACON
Wed 06:15:17 PM 33.9333 -117.2833 260° West 359 413 17,000 -600 Level Southern California TRACON
Wed 06:16:17 PM 33.9667 -117.4000 289° West 376 433 15,800 -1,300 Descending Southern California TRACON
Wed 06:17:17 PM 33.9833 -117.5167 280° West 336 387 14,400 -1,750 Descending Southern California TRACON
Wed 06:18:17 PM 34.0000 -117.6167 281° West 379 436 12,300 -2,100 Descending Southern California TRACON
Wed 06:19:17 PM 34.0167 -117.7333 280° West 297 342 10,200 -1,800 Descending Southern California TRACON
Wed 06:20:17 PM 34.0167 -117.8333 270° West 300 345 8,700 -1,050 Descending Southern California TRACON
Wed 06:21:17 PM 34.0000 -117.9167 256° West 296 341 8,100 -1,050 Descending Southern California TRACON
Wed 06:22:17 PM 33.9833 -118.0167 259° West 286 329 6,600 -1,450 Descending Southern California TRACON
Wed 06:23:17 PM 33.9833 -118.1000 270° West 242 278 5,200 -1,293 Descending Southern California TRACON
Wed 06:24:13 PM 33.9761 -118.1650 262° West 241 277 4,100 -1,179 Descending Los Angeles Center

Login

Don't have an account? Register now (free) for customized features, flight alerts, and more!